Time;durP1;ratioP1;P1;durP2;ratioP2;P2;SDS_P1;SDS_P2;PMS_P1;PMS_P2;Temp;Humidity;BMP_temperature;BMP_pressure;BME280_temperature;BME280_humidity;BME280_pressure;Samples;Min_cycle;Max_cycle;Signal;HPM_P1;HPM_P2
2023/06/29 00:00:13;;;;;;;1.88;0.90;;;;;;;34.08;24.73;100688.69;4988860;28;20058;-67
2023/06/29 00:02:42;;;;;;;2.05;0.65;;;;;;;34.13;24.11;100694.63;4988851;28;20098;-67
2023/06/29 00:05:11;;;;;;;0.90;0.70;;;;;;;34.16;24.77;100691.75;4988163;28;20050;-66
2023/06/29 00:07:40;;;;;;;1.58;0.70;;;;;;;34.16;26.33;100697.13;4981048;28;20125;-67
2023/06/29 00:10:11;;;;;;;1.00;0.65;;;;;;;34.20;25.71;100693.22;4989577;28;20046;-66
2023/06/29 00:12:40;;;;;;;;;;;;;;;34.20;23.57;100690.53;4992500;28;20564;-67
2023/06/29 00:15:09;;;;;;;3.00;0.82;;;;;;;34.22;23.57;100693.97;4984238;28;20427;-67
2023/06/29 00:17:38;;;;;;;2.47;0.70;;;;;;;34.22;23.84;100693.97;4978292;28;20453;-66
2023/06/29 00:20:10;;;;;;;2.40;0.70;;;;;;;34.23;24.21;100697.56;4992554;28;20072;-67
2023/06/29 00:22:40;;;;;;;2.17;0.63;;;;;;;34.24;23.96;100691.19;4979183;28;20089;-66
2023/06/29 00:25:11;;;;;;;1.63;0.70;;;;;;;34.25;24.89;100693.78;4986394;28;20054;-66
2023/06/29 00:27:40;;;;;;;5.05;0.60;;;;;;;34.20;24.05;100691.44;4984864;28;20057;-67
2023/06/29 00:30:09;;;;;;;2.30;0.70;;;;;;;34.15;24.73;100688.19;4989637;28;20054;-67
2023/06/29 00:32:38;;;;;;;0.90;0.65;;;;;;;34.15;25.20;100692.69;4982522;28;20054;-67
2023/06/29 00:35:07;;;;;;;3.13;0.70;;;;;;;34.08;25.09;100686.03;4986604;28;20536;-67
2023/06/29 00:37:35;;;;;;;1.25;1.05;;;;;;;33.97;25.47;100684.97;4991020;28;20519;-67
2023/06/29 00:40:05;;;;;;;2.30;0.85;;;;;;;33.89;25.20;100691.81;4992482;28;20058;-66
2023/06/29 00:42:35;;;;;;;1.42;0.60;;;;;;;33.84;25.19;100680.56;4988808;28;20053;-69
2023/06/29 00:45:04;;;;;;;0.88;0.50;;;;;;;33.79;24.24;100673.69;4986248;28;20117;-67
2023/06/29 00:47:34;;;;;;;3.10;0.77;;;;;;;33.77;24.21;100678.28;4987098;28;20050;-68
2023/06/29 00:50:05;;;;;;;1.20;0.63;;;;;;;33.80;24.55;100675.38;4976313;28;20101;-66
2023/06/29 00:52:34;;;;;;;2.78;0.60;;;;;;;33.83;24.73;100677.00;4989657;28;20101;-66
2023/06/29 00:55:04;;;;;;;0.82;0.70;;;;;;;33.84;25.77;100684.09;4983002;28;20508;-66
2023/06/29 00:57:34;;;;;;;2.42;0.80;;;;;;;33.77;24.79;100677.44;4986059;28;20054;-65
2023/06/29 01:00:05;;;;;;;2.47;0.52;;;;;;;33.45;24.35;100674.25;4990065;28;20046;-67
2023/06/29 01:02:35;;;;;;;1.45;0.80;;;;;;;33.24;24.68;100673.84;4992749;28;20152;-66
2023/06/29 01:05:05;;;;;;;1.75;0.60;;;;;;;33.21;25.53;100674.91;4987775;28;20049;-67
2023/06/29 01:07:41;;;;;;;2.78;0.70;;;;;;;33.23;27.26;100674.81;4989795;28;20582;-66
2023/06/29 01:10:14;;;;;;;0.98;0.70;;;;;;;33.23;27.42;100672.13;4985508;28;20046;-66
2023/06/29 01:12:44;;;;;;;1.27;0.63;;;;;;;33.23;27.36;100673.00;4988680;28;20100;-67
2023/06/29 01:15:13;;;;;;;1.00;0.50;;;;;;;33.21;27.24;100669.56;4985229;28;20057;-66
2023/06/29 01:17:44;;;;;;;0.95;0.68;;;;;;;33.18;27.65;100678.66;4994087;28;20504;-66
2023/06/29 01:20:14;;;;;;;8.25;0.90;;;;;;;33.12;27.09;100673.72;4987766;28;20051;-66
2023/06/29 01:22:58;;;;;;;3.00;0.90;;;;;;;33.10;26.50;100680.13;4973562;28;20074;-66
2023/06/29 01:25:29;;;;;;;2.00;0.60;;;;;;;33.08;26.13;100674.88;4985181;28;20082;-67
2023/06/29 01:27:57;;;;;;;2.03;0.70;;;;;;;33.11;27.06;100679.19;4981312;28;20074;-65
2023/06/29 01:30:27;;;;;;;2.47;0.85;;;;;;;33.10;25.98;100678.34;4982621;28;20130;-65
2023/06/29 01:32:56;;;;;;;3.80;0.88;;;;;;;33.13;27.49;100682.63;4984998;28;20492;-66
2023/06/29 01:35:24;;;;;;;1.80;0.60;;;;;;;33.13;27.22;100685.31;4998643;28;20056;-66
2023/06/29 01:38:04;;;;;;;1.00;0.60;;;;;;;33.11;27.41;100669.31;4986318;28;20042;-67
2023/06/29 01:40:36;;;;;;;0.68;0.57;;;;;;;33.12;26.66;100686.25;4974523;28;20051;-66
2023/06/29 01:43:05;;;;;;;0.75;0.55;;;;;;;33.12;27.72;100681.78;4989184;28;20452;-66
2023/06/29 01:45:38;;;;;;;1.10;0.60;;;;;;;33.11;27.50;100685.41;4983806;28;20692;-66
2023/06/29 01:48:08;;;;;;;0.80;0.60;;;;;;;33.04;27.44;100689.41;4982975;28;20081;-66
2023/06/29 01:50:37;;;;;;;0.93;0.50;;;;;;;33.00;26.16;100687.91;4988186;28;20042;-66
2023/06/29 01:53:06;;;;;;;2.58;0.70;;;;;;;32.95;27.31;100687.34;4982055;28;20485;-66
2023/06/29 01:55:36;;;;;;;3.15;0.68;;;;;;;32.92;27.17;100693.75;4983739;28;20058;-66
2023/06/29 01:58:08;;;;;;;2.85;0.60;;;;;;;32.86;27.99;100701.34;4988211;28;20464;-66
2023/06/29 02:00:37;;;;;;;1.30;0.43;;;;;;;32.72;27.99;100689.69;4989752;28;20197;-67
2023/06/29 02:03:05;;;;;;;1.80;0.50;;;;;;;32.62;27.90;100704.66;4987258;28;20050;-68
2023/06/29 02:05:34;;;;;;;0.60;0.50;;;;;;;32.49;28.51;100699.16;4997870;28;20041;-67
2023/06/29 02:08:03;;;;;;;1.23;0.40;;;;;;;32.30;27.71;100702.16;4996222;28;20779;-65
2023/06/29 02:10:32;;;;;;;0.73;0.30;;;;;;;32.12;28.13;100704.16;4985125;28;20126;-68
2023/06/29 02:13:02;;;;;;;2.65;1.10;;;;;;;31.93;27.87;100701.72;4979747;28;20434;-67
2023/06/29 02:15:31;;;;;;;1.10;0.30;;;;;;;31.79;27.96;100712.38;4994802;28;20046;-67
2023/06/29 02:17:59;;;;;;;1.55;0.40;;;;;;;31.66;28.51;100703.38;4986243;28;20244;-67
2023/06/29 02:20:28;;;;;;;0.80;0.32;;;;;;;31.54;28.97;100709.44;4993276;28;20053;-67
2023/06/29 02:22:56;;;;;;;0.50;0.35;;;;;;;31.43;29.07;100708.28;4989884;28;20063;-67
2023/06/29 02:25:25;;;;;;;1.05;0.35;;;;;;;31.35;29.04;100713.16;4981164;28;20105;-67
2023/06/29 02:27:53;;;;;;;1.52;0.40;;;;;;;31.24;28.88;100712.91;4992794;28;20096;-66
2023/06/29 02:30:24;;;;;;;0.63;0.43;;;;;;;31.06;29.35;100705.03;4985636;28;20050;-66
2023/06/29 02:32:54;;;;;;;1.02;0.40;;;;;;;31.00;30.10;100715.19;4981529;28;20042;-66
2023/06/29 02:35:23;;;;;;;0.95;0.40;;;;;;;30.92;29.65;100720.09;4986610;28;20093;-66
2023/06/29 02:37:51;;;;;;;3.50;0.57;;;;;;;30.80;29.36;100729.63;4984000;28;20050;-66
2023/06/29 02:40:20;;;;;;;1.77;0.30;;;;;;;30.66;28.95;100728.56;4984675;28;20051;-66
2023/06/29 02:42:49;;;;;;;0.65;0.40;;;;;;;30.53;29.54;100738.19;4983510;28;20049;-67
2023/06/29 02:45:17;;;;;;;0.63;0.40;;;;;;;30.41;29.79;100730.88;4983507;28;20065;-66
2023/06/29 02:47:47;;;;;;;2.92;0.40;;;;;;;30.25;29.56;100728.13;4987235;28;20046;-67
2023/06/29 02:50:16;;;;;;;0.75;0.30;;;;;;;30.12;30.06;100732.38;4980643;28;20979;-68
2023/06/29 02:52:45;;;;;;;1.52;0.30;;;;;;;29.98;29.81;100736.63;4984967;28;20042;-67
2023/06/29 02:55:13;;;;;;;0.68;0.30;;;;;;;29.87;29.75;100747.00;4986168;28;20152;-66
2023/06/29 02:57:42;;;;;;;1.75;0.32;;;;;;;29.77;30.17;100743.06;4987098;28;20058;-66
2023/06/29 03:00:12;;;;;;;0.80;0.30;;;;;;;29.67;30.27;100741.78;4988750;28;20050;-67
2023/06/29 03:02:40;;;;;;;0.30;0.22;;;;;;;29.58;30.14;100754.63;4987366;28;20050;-66
2023/06/29 03:05:11;;;;;;;0.38;0.30;;;;;;;29.44;30.00;100752.66;4994080;28;20100;-67
2023/06/29 03:07:40;;;;;;;0.75;0.20;;;;;;;29.36;30.80;100753.97;4978665;28;20050;-67
2023/06/29 03:10:09;;;;;;;1.45;0.38;;;;;;;29.27;30.64;100763.25;4987083;28;20055;-67
2023/06/29 03:12:38;;;;;;;2.83;0.40;;;;;;;29.16;31.63;100770.91;4986950;28;20527;-66
2023/06/29 03:15:07;;;;;;;0.52;0.32;;;;;;;29.03;31.20;100782.13;4985193;28;20494;-67
2023/06/29 03:17:37;;;;;;;1.48;0.40;;;;;;;28.96;30.88;100782.50;4998512;28;20109;-66
2023/06/29 03:20:06;;;;;;;2.15;0.40;;;;;;;28.96;30.88;100785.16;4987718;28;20054;-65
2023/06/29 03:22:37;;;;;;;1.33;0.40;;;;;;;28.91;30.89;100782.72;4959817;28;20105;-67
2023/06/29 03:25:06;;;;;;;2.45;0.43;;;;;;;28.88;31.55;100790.81;4966911;28;20116;-67
2023/06/29 03:27:34;;;;;;;0.95;0.45;;;;;;;28.84;31.12;100783.94;4966374;28;20047;-67
2023/06/29 03:30:03;;;;;;;1.67;0.50;;;;;;;28.78;31.72;100789.53;4970728;28;20065;-67
2023/06/29 03:32:32;;;;;;;0.93;0.30;;;;;;;28.73;30.69;100786.22;4968223;28;20073;-66
2023/06/29 03:35:00;;;;;;;0.40;0.30;;;;;;;28.65;31.79;100783.03;4970052;28;20736;-67
2023/06/29 03:37:29;;;;;;;5.30;0.50;;;;;;;28.59;30.87;100784.19;4971746;28;20485;-66
2023/06/29 03:39:59;;;;;;;0.65;0.40;;;;;;;28.52;31.57;100786.25;4963408;28;20054;-66
2023/06/29 03:42:28;;;;;;;0.60;0.38;;;;;;;28.44;31.04;100788.34;4964981;28;20488;-65
2023/06/29 03:44:56;;;;;;;1.60;0.40;;;;;;;28.36;31.77;100783.38;4966767;28;20055;-66
2023/06/29 03:47:34;;;;;;;1.13;0.30;;;;;;;28.27;33.31;100778.47;4959786;28;20098;-67
2023/06/29 03:50:03;;;;;;;1.55;0.40;;;;;;;28.19;30.71;100780.59;4953799;28;20300;-65
2023/06/29 03:52:31;;;;;;;1.02;0.30;;;;;;;28.10;32.42;100781.84;4978317;28;20455;-65
2023/06/29 03:55:04;;;;;;;1.75;0.30;;;;;;;27.97;33.83;100780.66;4973598;28;20519;-66
2023/06/29 03:57:33;;;;;;;1.05;0.50;;;;;;;27.86;30.48;100782.91;4967362;28;20114;-65
2023/06/29 04:00:02;;;;;;;0.95;0.40;;;;;;;27.72;29.21;100775.47;4971481;28;20809;-66
2023/06/29 04:02:31;;;;;;;0.98;0.40;;;;;;;27.65;29.87;100793.47;4971059;28;20078;-67
2023/06/29 04:05:02;;;;;;;0.80;0.30;;;;;;;27.54;29.66;100777.09;4967064;28;20046;-67
2023/06/29 04:07:31;;;;;;;0.70;0.43;;;;;;;27.44;29.82;100781.03;4974300;28;20085;-66
2023/06/29 04:09:59;;;;;;;0.60;0.35;;;;;;;27.34;30.46;100792.03;4970159;28;20042;-67
2023/06/29 04:12:30;;;;;;;1.75;0.50;;;;;;;27.27;30.44;100790.56;4973026;28;20058;-66
2023/06/29 04:14:58;;;;;;;1.08;0.30;;;;;;;27.19;30.02;100787.31;4972041;28;20050;-66
2023/06/29 04:17:27;;;;;;;1.75;0.32;;;;;;;27.10;30.87;100793.84;4970413;28;20085;-65
2023/06/29 04:19:55;;;;;;;3.00;0.40;;;;;;;27.02;30.83;100808.34;4971658;28;20527;-66
2023/06/29 04:22:31;;;;;;;1.17;0.30;;;;;;;26.92;31.24;100810.47;4992529;28;20047;-66
2023/06/29 04:24:59;;;;;;;0.88;0.30;;;;;;;26.79;31.35;100806.56;4979729;28;20070;-66
2023/06/29 04:27:31;;;;;;;0.60;0.40;;;;;;;26.71;31.96;100815.66;4984120;28;20117;-65
2023/06/29 04:30:00;;;;;;;1.27;0.32;;;;;;;26.64;31.96;100826.53;4991765;28;20046;-67
2023/06/29 04:32:28;;;;;;;0.32;0.22;;;;;;;26.55;32.83;100827.75;4991848;28;20124;-67
2023/06/29 04:34:59;;;;;;;2.42;0.47;;;;;;;26.45;33.31;100821.84;4992813;28;20054;-67
2023/06/29 04:37:35;;;;;;;0.88;0.40;;;;;;;26.38;33.13;100830.09;4990036;28;20058;-66
2023/06/29 04:40:05;;;;;;;2.42;0.40;;;;;;;26.33;33.26;100835.56;4986573;28;20069;-67
2023/06/29 04:42:45;;;;;;;0.90;0.40;;;;;;;26.24;35.96;100833.22;4986470;28;20060;-67
2023/06/29 04:45:19;;;;;;;2.05;0.40;;;;;;;26.18;34.93;100828.13;4985307;28;20125;-66
2023/06/29 04:47:49;;;;;;;1.67;0.50;;;;;;;26.10;34.55;100842.53;4981390;28;20288;-66
2023/06/29 04:50:25;;;;;;;1.15;0.40;;;;;;;26.03;34.54;100845.44;4984273;28;20133;-66
2023/06/29 04:52:54;;;;;;;2.83;0.50;;;;;;;25.94;35.35;100851.91;4990014;28;20104;-66
2023/06/29 04:55:23;;;;;;;1.80;0.40;;;;;;;25.82;35.54;100852.28;4984121;28;20078;-66
2023/06/29 04:57:54;;;;;;;0.52;0.32;;;;;;;25.84;35.88;100850.44;4988766;28;20101;-65
2023/06/29 05:00:23;;;;;;;0.45;0.30;;;;;;;25.81;36.42;100850.53;4993206;28;20053;-67
2023/06/29 05:02:52;;;;;;;0.77;0.20;;;;;;;25.71;36.58;100856.13;4983799;28;20043;-66
2023/06/29 05:05:20;;;;;;;0.30;0.30;;;;;;;25.61;37.19;100851.16;4987975;28;20087;-66
2023/06/29 05:07:49;;;;;;;2.65;0.35;;;;;;;25.52;37.74;100849.69;4994514;28;20111;-67
2023/06/29 05:10:18;;;;;;;1.35;0.40;;;;;;;25.43;38.04;100857.91;4988765;28;20112;-65
2023/06/29 05:12:47;;;;;;;0.75;0.28;;;;;;;25.36;38.17;100856.34;4990529;28;20050;-66
2023/06/29 05:15:17;;;;;;;1.08;0.30;;;;;;;25.28;38.65;100862.75;4988453;28;20051;-65
2023/06/29 05:17:45;;;;;;;0.63;0.32;;;;;;;25.20;38.70;100856.81;4986382;28;20047;-66
2023/06/29 05:20:21;;;;;;;1.75;0.38;;;;;;;25.09;39.15;100856.25;4990772;28;20579;-66
2023/06/29 05:22:49;;;;;;;0.70;0.30;;;;;;;24.97;39.46;100868.06;4972576;28;20046;-66
2023/06/29 05:25:18;;;;;;;0.82;0.30;;;;;;;24.85;39.50;100869.28;4966897;28;20081;-66
2023/06/29 05:27:46;;;;;;;1.00;0.40;;;;;;;24.79;40.04;100869.44;4966502;28;20090;-66
2023/06/29 05:30:17;;;;;;;0.30;0.20;;;;;;;24.73;40.17;100868.72;4966204;28;20517;-65
2023/06/29 05:32:46;;;;;;;1.40;0.20;;;;;;;24.65;40.01;100871.59;4968852;28;20501;-67
2023/06/29 05:35:15;;;;;;;2.13;0.40;;;;;;;24.58;40.37;100872.63;4966781;28;20152;-65
2023/06/29 05:37:43;;;;;;;1.25;0.30;;;;;;;24.48;40.50;100866.72;4970100;28;20527;-66
2023/06/29 05:40:13;;;;;;;1.67;0.30;;;;;;;24.40;40.59;100869.56;4968681;28;20046;-66
2023/06/29 05:42:42;;;;;;;1.85;0.30;;;;;;;24.32;41.30;100865.38;4968721;28;20413;-65
2023/06/29 05:45:13;;;;;;;0.40;0.28;;;;;;;24.24;41.31;100873.50;4970976;28;20069;-65
2023/06/29 05:47:44;;;;;;;0.60;0.30;;;;;;;24.17;41.54;100880.72;4970310;28;20370;-65
2023/06/29 05:50:12;;;;;;;2.63;0.50;;;;;;;24.12;41.55;100872.03;4960808;28;20046;-65
2023/06/29 05:52:41;;;;;;;0.40;0.30;;;;;;;24.08;40.85;100877.44;4967290;28;20051;-66
2023/06/29 05:55:10;;;;;;;1.30;0.40;;;;;;;24.03;41.54;100878.41;4964553;28;20055;-66
2023/06/29 05:57:41;;;;;;;0.30;0.20;;;;;;;24.00;41.44;100883.75;4970681;28;20046;-66
2023/06/29 06:00:12;;;;;;;1.83;0.30;;;;;;;23.92;41.96;100880.44;4969763;28;20068;-66
2023/06/29 06:02:49;;;;;;;1.05;0.30;;;;;;;23.81;42.97;100871.91;4971348;28;20252;-66
2023/06/29 06:05:18;;;;;;;1.27;0.40;;;;;;;23.72;42.79;100878.22;4958797;28;20055;-66
2023/06/29 06:07:46;;;;;;;2.25;0.32;;;;;;;23.63;42.94;100874.03;4969691;28;20476;-65
2023/06/29 06:10:15;;;;;;;0.45;0.30;;;;;;;23.55;43.82;100869.84;4965964;28;20262;-65
2023/06/29 06:12:43;;;;;;;0.77;0.30;;;;;;;23.50;43.54;100879.63;4973045;28;20062;-65
2023/06/29 06:15:14;;;;;;;1.15;0.40;;;;;;;23.41;44.04;100875.44;4971277;28;20054;-67
2023/06/29 06:17:44;;;;;;;1.45;0.40;;;;;;;23.31;42.90;100882.66;4967826;28;20062;-67
2023/06/29 06:20:13;;;;;;;0.60;0.40;;;;;;;23.27;43.31;100885.41;4968491;28;20058;-66
2023/06/29 06:22:42;;;;;;;0.95;0.40;;;;;;;23.28;43.91;100881.88;4983218;28;20555;-67
2023/06/29 06:25:11;;;;;;;0.45;0.32;;;;;;;23.27;42.66;100880.13;4984491;28;20105;-68
2023/06/29 06:27:40;;;;;;;0.95;0.20;;;;;;;23.25;44.78;100880.16;4987158;28;20104;-66
2023/06/29 06:30:09;;;;;;;0.43;0.30;;;;;;;23.23;44.26;100886.34;4981031;28;20066;-67
2023/06/29 06:32:40;;;;;;;0.82;0.45;;;;;;;23.16;42.73;100878.59;4983698;28;20042;-66
2023/06/29 06:35:12;;;;;;;0.85;0.30;;;;;;;23.13;43.24;100889.19;4986224;28;20077;-66
2023/06/29 06:37:40;;;;;;;1.45;0.40;;;;;;;23.12;43.27;100891.88;4991837;28;20049;-65
2023/06/29 06:40:10;;;;;;;0.50;0.40;;;;;;;23.05;43.07;100891.13;4988956;28;20070;-66
2023/06/29 06:42:40;;;;;;;0.60;0.30;;;;;;;23.01;44.66;100900.00;4985152;28;20050;-64
2023/06/29 06:45:09;;;;;;;0.70;0.40;;;;;;;22.94;43.92;100898.34;4990508;28;20061;-66
2023/06/29 06:47:38;;;;;;;3.45;0.40;;;;;;;22.94;43.93;100900.97;4986424;28;20058;-66
2023/06/29 06:50:07;;;;;;;2.75;0.30;;;;;;;22.91;44.27;100908.97;4978739;28;20133;-66
2023/06/29 06:52:37;;;;;;;0.70;0.43;;;;;;;22.84;45.26;100920.50;4985731;28;20053;-66
2023/06/29 06:55:07;;;;;;;1.75;0.22;;;;;;;22.80;45.84;100917.06;4978431;28;20050;-66
2023/06/29 06:57:36;;;;;;;0.35;0.20;;;;;;;22.78;44.85;100917.09;4980453;28;20523;-67
2023/06/29 07:00:05;;;;;;;1.45;0.28;;;;;;;22.78;45.07;100922.38;4986426;28;20100;-65
2023/06/29 07:02:34;;;;;;;0.35;0.30;;;;;;;22.77;44.24;100917.16;4988613;28;20050;-66
2023/06/29 07:05:04;;;;;;;0.57;0.20;;;;;;;22.77;45.71;100923.28;4986966;28;20109;-65
2023/06/29 07:07:33;;;;;;;1.23;0.40;;;;;;;22.75;46.76;100921.56;4989690;28;20140;-65
2023/06/29 07:10:03;;;;;;;0.32;0.20;;;;;;;22.72;45.86;100922.50;4983167;28;20365;-65
2023/06/29 07:12:32;;;;;;;0.40;0.30;;;;;;;22.68;45.46;100923.44;4980332;28;20055;-66
2023/06/29 07:15:01;;;;;;;0.45;0.20;;;;;;;22.67;45.04;100934.03;4986273;28;20050;-66
2023/06/29 07:17:30;;;;;;;0.50;0.40;;;;;;;22.66;45.91;100935.78;4988592;28;20050;-65
2023/06/29 07:19:59;;;;;;;1.35;0.60;;;;;;;22.63;45.72;100934.97;4983571;28;20054;-65
2023/06/29 07:22:27;;;;;;;0.88;0.40;;;;;;;22.55;45.35;100927.19;4966522;28;20630;-66
2023/06/29 07:24:57;;;;;;;1.60;0.30;;;;;;;22.59;46.03;100939.44;4967228;28;20544;-66
2023/06/29 07:27:28;;;;;;;0.55;0.40;;;;;;;22.56;46.61;100944.75;4972605;28;20086;-67
2023/06/29 07:29:57;;;;;;;0.63;0.52;;;;;;;22.54;47.83;100952.69;4971268;28;20518;-67
2023/06/29 07:32:25;;;;;;;0.32;0.32;;;;;;;22.51;47.33;100952.72;4970046;28;20051;-67
2023/06/29 07:34:54;;;;;;;1.35;0.40;;;;;;;22.48;48.67;100954.56;4972465;28;20045;-66
2023/06/29 07:37:23;;;;;;;0.77;0.55;;;;;;;22.43;49.73;100956.41;4974998;28;20408;-66
2023/06/29 07:39:51;;;;;;;0.57;0.45;;;;;;;22.36;48.88;100948.59;4971693;28;20061;-66
2023/06/29 07:42:28;;;;;;;2.20;0.35;;;;;;;22.28;50.40;100947.84;4962944;28;20047;-67
2023/06/29 07:44:57;;;;;;;0.68;0.40;;;;;;;22.16;50.07;100961.19;4968240;28;20065;-67
2023/06/29 07:47:25;;;;;;;0.60;0.45;;;;;;;22.06;49.67;100964.84;4971568;28;20720;-67
2023/06/29 07:49:54;;;;;;;0.63;0.32;;;;;;;22.02;49.78;100969.28;4974118;28;20043;-67
2023/06/29 07:52:24;;;;;;;2.35;0.50;;;;;;;21.99;49.05;100979.00;4983406;28;20046;-66
2023/06/29 07:54:53;;;;;;;0.90;0.55;;;;;;;21.95;48.95;100972.91;4969920;28;20047;-66
2023/06/29 07:57:21;;;;;;;0.55;0.40;;;;;;;21.87;48.91;100957.19;4970602;28;20059;-67
2023/06/29 07:59:53;;;;;;;0.73;0.40;;;;;;;21.83;49.45;100963.44;4975691;28;20051;-67
2023/06/29 08:02:22;;;;;;;0.75;0.50;;;;;;;21.76;49.54;100961.72;4961968;28;20097;-67
2023/06/29 08:04:51;;;;;;;2.33;0.50;;;;;;;21.67;50.91;100967.13;4971689;28;20047;-66
2023/06/29 08:07:20;;;;;;;1.27;0.57;;;;;;;21.60;52.29;100965.47;4962554;28;20154;-66
2023/06/29 08:09:48;;;;;;;0.43;0.30;;;;;;;21.54;52.53;100961.16;4968892;28;20490;-67
2023/06/29 08:12:17;;;;;;;0.57;0.32;;;;;;;21.49;51.48;100963.84;4969022;28;20035;-66
2023/06/29 08:14:45;;;;;;;0.50;0.40;;;;;;;21.43;51.25;100965.69;4978351;28;20055;-67
2023/06/29 08:17:16;;;;;;;1.45;0.20;;;;;;;21.37;50.48;100963.09;4973324;28;20054;-67
2023/06/29 08:19:44;;;;;;;3.47;0.40;;;;;;;21.31;50.23;100962.28;4971787;28;20524;-68
2023/06/29 08:22:13;;;;;;;0.65;0.30;;;;;;;21.29;50.93;100964.03;4981367;28;20046;-66
2023/06/29 08:24:43;;;;;;;3.95;0.40;;;;;;;21.26;50.91;100971.13;4980538;28;20683;-66
2023/06/29 08:27:12;;;;;;;2.33;0.68;;;;;;;21.20;50.73;100976.44;4991098;28;20074;-67
2023/06/29 08:29:41;;;;;;;1.88;0.43;;;;;;;21.12;53.65;100976.53;4988862;28;20046;-66
2023/06/29 08:32:11;;;;;;;1.10;0.50;;;;;;;20.98;54.50;100973.16;4989176;28;20046;-66
2023/06/29 08:34:41;;;;;;;2.80;0.50;;;;;;;20.83;53.70;100984.72;4992825;28;20042;-66
2023/06/29 08:37:09;;;;;;;1.05;0.40;;;;;;;20.77;54.06;100982.13;4986880;28;20050;-66
2023/06/29 08:39:38;;;;;;;0.82;0.30;;;;;;;20.65;55.09;100983.97;4992570;28;20551;-66
2023/06/29 08:42:08;;;;;;;0.55;0.30;;;;;;;20.58;55.03;100982.28;4990144;28;20121;-66
2023/06/29 08:44:36;;;;;;;2.50;0.57;;;;;;;20.56;55.10;100980.53;4996304;28;20100;-66
2023/06/29 08:47:07;;;;;;;1.75;0.50;;;;;;;20.53;55.50;100978.78;4988806;28;20053;-66
2023/06/29 08:49:37;;;;;;;1.83;0.47;;;;;;;20.50;55.55;100968.28;4987651;28;20054;-65
2023/06/29 08:52:10;;;;;;;0.55;0.40;;;;;;;20.49;55.72;100977.06;4986129;28;20702;-66
2023/06/29 08:54:39;;;;;;;0.68;0.50;;;;;;;20.44;56.18;100979.72;4977979;28;20050;-66
2023/06/29 08:57:09;;;;;;;2.47;0.30;;;;;;;20.39;57.09;100976.28;4992668;28;20053;-67
2023/06/29 08:59:39;;;;;;;1.45;0.43;;;;;;;20.33;57.77;100980.69;4991688;28;20600;-67
2023/06/29 09:02:08;;;;;;;0.98;0.47;;;;;;;20.27;58.21;100987.75;4983902;28;20053;-66
2023/06/29 09:04:36;;;;;;;0.40;0.32;;;;;;;20.20;58.87;100979.91;4990606;28;20050;-66
2023/06/29 09:07:07;;;;;;;1.83;0.30;;;;;;;20.15;58.23;100987.81;4979699;28;20082;-66
2023/06/29 09:09:39;;;;;;;0.98;0.50;;;;;;;20.09;59.11;100990.50;4984573;28;20067;-66
2023/06/29 09:12:09;;;;;;;0.65;0.50;;;;;;;20.08;58.82;100991.34;4990347;28;20133;-66
2023/06/29 09:14:43;;;;;;;0.38;0.30;;;;;;;20.02;59.22;100997.53;4990669;28;20049;-65
2023/06/29 09:17:15;;;;;;;1.15;0.40;;;;;;;19.93;59.90;100999.31;4982629;28;20457;-65
2023/06/29 09:19:51;;;;;;;;;;;;;;;19.83;60.17;100999.34;4987632;28;20121;-66
2023/06/29 09:22:22;;;;;;;0.98;0.50;;;;;;;19.77;60.43;100996.78;4989031;28;19921;-65
2023/06/29 09:24:56;;;;;;;1.07;0.37;;;;;;;19.74;60.47;100999.41;4986501;28;20436;-66
2023/06/29 09:27:25;;;;;;;0.63;0.40;;;;;;;19.72;60.14;100998.53;4990747;28;20125;-66
2023/06/29 09:29:54;;;;;;;3.42;0.40;;;;;;;19.68;60.81;100991.53;4990083;28;20050;-66
2023/06/29 09:32:22;;;;;;;0.93;0.35;;;;;;;19.65;60.61;100996.78;4991177;28;20038;-65
2023/06/29 09:34:51;;;;;;;1.75;0.50;;;;;;;19.62;60.68;100996.81;4988846;28;20100;-66
2023/06/29 09:37:24;;;;;;;0.40;0.40;;;;;;;19.58;60.86;101000.31;4991888;28;20054;-65
2023/06/29 09:40:00;;;;;;;0.93;0.40;;;;;;;19.51;61.66;101004.72;4985104;28;20049;-66
2023/06/29 09:42:30;;;;;;;1.10;0.50;;;;;;;19.41;62.49;101003.88;4989076;28;20050;-66
2023/06/29 09:45:07;;;;;;;0.70;0.40;;;;;;;19.35;62.57;101006.50;4989059;28;20054;-66
2023/06/29 09:47:37;;;;;;;1.77;0.40;;;;;;;19.34;61.86;101010.03;4992042;28;20057;-66
2023/06/29 09:50:18;;;;;;;0.47;0.30;;;;;;;19.33;61.35;101016.13;4986981;28;20440;-66
2023/06/29 09:52:51;;;;;;;3.40;0.35;;;;;;;19.28;60.50;101010.03;4991751;28;20550;-65
2023/06/29 09:55:20;;;;;;;0.20;0.20;;;;;;;19.25;60.55;101013.53;4988627;28;20682;-65
2023/06/29 09:57:49;;;;;;;0.30;0.22;;;;;;;19.22;61.25;101007.44;5002453;28;20058;-66
2023/06/29 10:00:21;;;;;;;0.63;0.30;;;;;;;19.19;61.74;101007.44;4991828;28;20064;-65
2023/06/29 10:02:49;;;;;;;0.33;0.30;;;;;;;19.17;61.44;101010.06;4986583;28;20047;-65
2023/06/29 10:05:18;;;;;;;0.20;0.20;;;;;;;19.15;61.23;101013.53;4998137;28;20519;-66
2023/06/29 10:07:51;;;;;;;2.03;0.30;;;;;;;19.10;60.65;101013.56;4987909;28;20046;-67
2023/06/29 10:10:23;;;;;;;1.45;0.30;;;;;;;19.09;60.28;101016.19;4985021;28;20046;-65
2023/06/29 10:12:56;;;;;;;0.15;0.15;;;;;;;19.04;60.91;101018.81;4986482;28;20045;-65
2023/06/29 10:15:27;;;;;;;0.17;0.10;;;;;;;19.01;60.61;101032.81;4986268;28;20130;-65
2023/06/29 10:18:01;;;;;;;0.20;0.20;;;;;;;18.91;60.39;101022.31;4985037;28;20104;-65
2023/06/29 10:20:34;;;;;;;0.47;0.20;;;;;;;18.88;60.51;101028.44;4984799;28;20080;-65
2023/06/29 10:23:05;;;;;;;;;;;;;;;18.84;60.77;101032.81;4987113;28;20074;-66
2023/06/29 10:25:38;;;;;;;0.20;0.20;;;;;;;18.80;60.70;101031.06;4987037;28;19934;-65
2023/06/29 10:28:08;;;;;;;0.20;0.10;;;;;;;18.77;61.36;101036.31;4989721;28;20076;-66
2023/06/29 10:30:46;;;;;;;0.30;0.15;;;;;;;18.75;62.28;101037.16;4986146;28;20096;-66
2023/06/29 10:33:16;;;;;;;0.10;0.10;;;;;;;18.72;61.29;101042.41;4989731;28;20058;-66
2023/06/29 10:35:53;;;;;;;0.63;0.20;;;;;;;18.69;61.71;101042.38;4999085;28;20084;-66
2023/06/29 10:38:32;;;;;;;0.20;0.20;;;;;;;18.65;61.40;101048.50;4987934;28;20086;-65
2023/06/29 10:41:01;;;;;;;0.28;0.10;;;;;;;18.60;61.14;101057.25;4990303;28;20050;-66
2023/06/29 10:43:29;;;;;;;0.28;0.20;;;;;;;18.58;61.13;101052.88;4990332;28;20058;-66
2023/06/29 10:46:00;;;;;;;0.15;0.10;;;;;;;18.54;62.33;101048.50;4984995;28;20050;-66
2023/06/29 10:48:29;;;;;;;0.10;0.10;;;;;;;18.48;62.09;101051.97;4986141;28;20054;-66
2023/06/29 10:50:58;;;;;;;0.35;0.10;;;;;;;18.45;62.50;101058.97;4986737;28;20057;-67
2023/06/29 10:53:29;;;;;;;0.10;0.10;;;;;;;18.40;62.36;101053.72;4989515;28;20053;-65
2023/06/29 10:55:58;;;;;;;1.00;0.35;;;;;;;18.37;62.50;101057.22;4987152;28;20046;-66
2023/06/29 10:58:28;;;;;;;0.30;0.20;;;;;;;18.33;62.45;101065.06;4989270;28;20054;-65
2023/06/29 11:00:57;;;;;;;0.35;0.20;;;;;;;18.27;62.72;101059.78;4986861;28;20054;-66
2023/06/29 11:03:26;;;;;;;0.15;0.00;;;;;;;18.27;62.66;101065.03;4989363;28;20109;-66
2023/06/29 11:05:58;;;;;;;0.10;0.10;;;;;;;18.24;63.78;101062.41;4987451;28;20100;-65
2023/06/29 11:08:29;;;;;;;0.38;0.10;;;;;;;18.21;66.57;101065.91;4986205;28;20065;-65
2023/06/29 11:11:13;;;;;;;0.68;0.20;;;;;;;18.18;65.40;101055.38;4991453;28;20114;-66
2023/06/29 11:13:41;;;;;;;0.32;0.20;;;;;;;18.19;65.17;101063.25;4977654;28;20042;-66
2023/06/29 11:16:10;;;;;;;0.20;0.10;;;;;;;18.16;65.83;101060.66;4989485;28;20051;-65
2023/06/29 11:18:38;;;;;;;1.33;0.30;;;;;;;18.17;66.33;101059.75;4986622;28;20104;-66
2023/06/29 11:21:07;;;;;;;0.70;0.22;;;;;;;18.15;66.05;101058.88;4987492;28;20120;-67
2023/06/29 11:23:40;;;;;;;1.45;0.20;;;;;;;18.16;65.90;101068.50;4990050;28;20551;-66
2023/06/29 11:26:09;;;;;;;0.45;0.20;;;;;;;18.13;65.72;101054.50;4986730;28;20049;-66
2023/06/29 11:28:38;;;;;;;0.43;0.15;;;;;;;18.11;67.32;101058.88;4988529;28;20054;-65
2023/06/29 11:31:08;;;;;;;1.95;0.22;;;;;;;18.06;66.71;101053.63;4987307;28;20049;-66
2023/06/29 11:33:47;;;;;;;0.10;0.10;;;;;;;18.03;65.99;101056.22;4983901;28;20051;-66
2023/06/29 11:36:16;;;;;;;0.75;0.70;;;;;;;17.98;65.84;101052.69;4987358;28;20490;-66
2023/06/29 11:38:46;;;;;;;0.32;0.10;;;;;;;17.93;65.76;101049.19;4989891;28;20047;-65